Time;durP1;ratioP1;P1;durP2;ratioP2;P2;SDS_P1;SDS_P2;PMS_P1;PMS_P2;Temp;Humidity;BMP_temperature;BMP_pressure;BME280_temperature;BME280_humidity;BME280_pressure;Samples;Min_cycle;Max_cycle;Signal;HPM_P1;HPM_P2
2023/01/05 00:02:19;;;;;;;2.23;1.00;;;;;;;;;;10448255;28;20702;-64
2023/01/05 00:07:19;;;;;;;0.67;0.67;;;;;;;;;;10448680;28;20219;-61
2023/01/05 00:22:57;;;;;;;1.23;0.70;;;;;;;;;;10452240;28;20227;-63
2023/01/05 00:27:57;;;;;;;2.70;1.07;;;;;;;;;;10456931;28;20599;-64
2023/01/05 00:32:58;;;;;;;3.50;0.87;;;;;;;;;;10456486;28;20705;-63
2023/01/05 00:37:58;;;;;;;1.07;0.90;;;;;;;;;;10456291;28;20188;-62
2023/01/05 00:42:58;;;;;;;0.67;0.67;;;;;;;;;;10456101;28;20669;-62
2023/01/05 00:47:58;;;;;;;1.17;0.60;;;;;;;;;;10437502;28;20227;-61
2023/01/05 00:52:58;;;;;;;3.10;0.80;;;;;;;;;;10455024;28;20200;-61
2023/01/05 00:57:58;;;;;;;1.67;0.90;;;;;;;;;;10454382;28;20655;-61
2023/01/05 01:02:59;;;;;;;0.70;0.70;;;;;;;;;;10436914;28;20261;-61
2023/01/05 01:07:59;;;;;;;1.70;0.90;;;;;;;;;;10454720;28;20682;-60
2023/01/05 01:12:59;;;;;;;2.87;0.80;;;;;;;;;;10436296;28;20236;-61
2023/01/05 01:17:59;;;;;;;3.87;1.00;;;;;;;;;;10437063;28;20184;-60
2023/01/05 01:23:02;;;;;;;3.60;1.33;;;;;;;;;;10452389;28;20235;-60
2023/01/05 01:28:02;;;;;;;8.77;1.30;;;;;;;;;;10436665;28;20351;-61
2023/01/05 01:33:02;;;;;;;3.30;1.00;;;;;;;;;;10434020;28;20280;-59
2023/01/05 01:38:02;;;;;;;4.27;1.20;;;;;;;;;;10453510;28;20184;-59
2023/01/05 01:43:08;;;;;;;6.87;1.57;;;;;;;;;;10435569;28;20204;-60
2023/01/05 01:48:09;;;;;;;8.03;1.30;;;;;;;;;;10452839;28;20211;-59
2023/01/05 01:53:18;;;;;;;9.13;1.50;;;;;;;;;;10435047;28;20200;-59
2023/01/05 01:58:20;;;;;;;5.60;1.60;;;;;;;;;;10452593;28;20187;-59
2023/01/05 02:03:20;;;;;;;8.43;1.40;;;;;;;;;;10432848;28;20624;-59
2023/01/05 02:08:30;;;;;;;5.67;1.53;;;;;;;;;;10434931;28;20365;-57
2023/01/05 02:13:45;;;;;;;6.63;1.60;;;;;;;;;;10434319;28;20985;-58
2023/01/05 02:18:52;;;;;;;6.00;1.43;;;;;;;;;;10433986;28;20188;-57
2023/01/05 02:24:05;;;;;;;4.40;1.30;;;;;;;;;;10432386;28;20373;-59
2023/01/05 02:29:21;;;;;;;7.03;1.07;;;;;;;;;;10433558;28;20199;-60
2023/01/05 02:34:24;;;;;;;6.67;1.43;;;;;;;;;;10433093;28;20199;-57
2023/01/05 02:39:40;;;;;;;5.10;1.50;;;;;;;;;;10433698;28;20658;-58
2023/01/05 02:44:40;;;;;;;6.23;1.37;;;;;;;;;;10432510;28;20227;-57
2023/01/05 02:49:40;;;;;;;5.13;1.40;;;;;;;;;;10450611;28;20703;-59
2023/01/05 02:54:46;;;;;;;7.83;1.40;;;;;;;;;;10432023;28;20439;-59
2023/01/05 02:59:49;;;;;;;6.67;1.60;;;;;;;;;;10432674;28;20200;-58
2023/01/05 03:04:52;;;;;;;3.80;1.40;;;;;;;;;;10431573;28;20695;-59
2023/01/05 03:09:53;;;;;;;6.67;1.10;;;;;;;;;;10430944;28;20219;-57
2023/01/05 03:14:55;;;;;;;5.07;1.57;;;;;;;;;;10430562;28;21062;-58
2023/01/05 03:19:56;;;;;;;8.30;1.53;;;;;;;;;;10430172;28;20239;-58
2023/01/05 03:35:40;;;;;;;6.90;1.57;;;;;;;;;;10430943;28;20200;-58
2023/01/05 03:40:41;;;;;;;11.80;1.90;;;;;;;;;;10449053;28;20200;-56
2023/01/05 03:45:43;;;;;;;6.57;1.27;;;;;;;;;;10447752;28;20277;-59
2023/01/05 03:50:49;;;;;;;7.63;1.87;;;;;;;;;;10430921;28;20180;-59
2023/01/05 03:55:51;;;;;;;7.03;1.47;;;;;;;;;;10429412;28;20208;-57
2023/01/05 04:00:52;;;;;;;8.23;1.60;;;;;;;;;;10430235;28;20244;-56
2023/01/05 04:05:55;;;;;;;11.03;1.77;;;;;;;;;;10424141;28;20275;-58
2023/01/05 04:11:09;;;;;;;8.80;2.30;;;;;;;;;;10422974;28;20218;-54
2023/01/05 04:16:09;;;;;;;10.23;1.80;;;;;;;;;;10439747;28;20698;-58
2023/01/05 04:21:11;;;;;;;8.83;1.73;;;;;;;;;;10422735;28;20641;-53
2023/01/05 04:26:12;;;;;;;4.50;1.63;;;;;;;;;;10422477;28;20710;-59
2023/01/05 04:31:13;;;;;;;6.97;1.90;;;;;;;;;;10423297;28;20175;-60
2023/01/05 04:36:14;;;;;;;10.83;2.20;;;;;;;;;;10423321;28;20323;-59
2023/01/05 04:41:14;;;;;;;12.40;1.80;;;;;;;;;;10441048;28;20557;-59
2023/01/05 04:46:19;;;;;;;12.03;2.57;;;;;;;;;;10421931;28;20302;-59
2023/01/05 04:51:22;;;;;;;6.53;1.83;;;;;;;;;;10440722;28;20185;-56
2023/01/05 04:56:24;;;;;;;9.47;2.00;;;;;;;;;;10421668;28;20815;-60
2023/01/05 05:01:25;;;;;;;10.77;3.00;;;;;;;;;;10441115;28;20823;-60
2023/01/05 05:06:28;;;;;;;9.47;1.93;;;;;;;;;;10429978;28;20809;-60
2023/01/05 05:11:30;;;;;;;8.30;1.70;;;;;;;;;;10454842;28;20712;-59
2023/01/05 05:16:30;;;;;;;7.73;1.93;;;;;;;;;;10454496;28;20204;-59
2023/01/05 05:21:31;;;;;;;12.30;2.53;;;;;;;;;;10437382;28;20230;-59
2023/01/05 05:26:32;;;;;;;11.47;2.13;;;;;;;;;;10453608;28;20275;-58
2023/01/05 05:31:33;;;;;;;8.00;2.13;;;;;;;;;;10436741;28;20423;-58
2023/01/05 05:36:35;;;;;;;7.50;2.27;;;;;;;;;;10453801;28;20211;-59
2023/01/05 05:41:35;;;;;;;10.63;2.10;;;;;;;;;;10454153;28;20188;-58
2023/01/05 05:46:35;;;;;;;11.67;2.60;;;;;;;;;;10452864;28;20220;-59
2023/01/05 05:51:35;;;;;;;8.10;1.93;;;;;;;;;;10453938;28;20425;-58
2023/01/05 05:56:35;;;;;;;7.93;1.83;;;;;;;;;;10452588;28;20235;-56
2023/01/05 06:01:36;;;;;;;13.47;2.50;;;;;;;;;;10453333;28;20434;-59
2023/01/05 06:06:37;;;;;;;9.67;1.90;;;;;;;;;;10452751;28;20234;-60
2023/01/05 06:11:37;;;;;;;9.80;2.03;;;;;;;;;;10452614;28;20203;-60
2023/01/05 06:16:38;;;;;;;15.73;2.37;;;;;;;;;;10452215;28;20724;-60
2023/01/05 06:21:38;;;;;;;14.80;5.40;;;;;;;;;;10451864;28;20202;-59
2023/01/05 06:26:38;;;;;;;8.13;2.03;;;;;;;;;;10451423;28;20692;-57
2023/01/05 06:31:38;;;;;;;8.40;2.47;;;;;;;;;;10452196;28;20187;-57
2023/01/05 06:36:38;;;;;;;7.70;2.00;;;;;;;;;;10451495;28;20208;-59
2023/01/05 06:41:38;;;;;;;11.40;1.97;;;;;;;;;;10450966;28;20237;-60
2023/01/05 06:46:39;;;;;;;7.97;2.00;;;;;;;;;;10451013;28;20223;-59
2023/01/05 06:51:40;;;;;;;11.47;2.63;;;;;;;;;;10451492;28;20194;-56
2023/01/05 06:56:40;;;;;;;9.63;2.27;;;;;;;;;;10449877;28;20195;-60
2023/01/05 07:01:40;;;;;;;7.47;2.63;;;;;;;;;;10451164;28;20207;-59
2023/01/05 07:06:40;;;;;;;9.57;1.90;;;;;;;;;;10429236;28;20350;-60
2023/01/05 07:11:41;;;;;;;8.87;2.20;;;;;;;;;;10409536;28;20213;-60
2023/01/05 07:16:41;;;;;;;10.67;2.23;;;;;;;;;;10408125;28;20212;-60
2023/01/05 07:21:41;;;;;;;8.37;1.83;;;;;;;;;;10408677;28;20222;-61
2023/01/05 07:26:41;;;;;;;7.37;2.30;;;;;;;;;;10407940;28;20278;-60
2023/01/05 07:31:41;;;;;;;7.70;2.00;;;;;;;;;;10407800;28;20177;-60
2023/01/05 07:36:41;;;;;;;8.10;1.93;;;;;;;;;;10407994;28;20695;-60
2023/01/05 07:41:42;;;;;;;10.40;2.90;;;;;;;;;;10407729;28;20881;-61
2023/01/05 07:46:43;;;;;;;4.83;2.00;;;;;;;;;;10390575;28;20209;-56
2023/01/05 07:51:43;;;;;;;8.13;2.03;;;;;;;;;;10407246;28;20718;-61
2023/01/05 07:56:43;;;;;;;7.57;1.97;;;;;;;;;;10423722;28;20552;-60
2023/01/05 08:01:44;;;;;;;9.80;2.17;;;;;;;;;;10444772;28;20278;-57
2023/01/05 08:06:44;;;;;;;9.07;1.90;;;;;;;;;;10443691;28;20216;-59
2023/01/05 08:11:44;;;;;;;9.27;1.90;;;;;;;;;;10421545;28;20192;-61
2023/01/05 08:16:44;;;;;;;9.83;2.00;;;;;;;;;;10407081;28;20200;-60
2023/01/05 08:21:44;;;;;;;8.20;2.17;;;;;;;;;;10440306;28;20195;-59
2023/01/05 08:26:47;;;;;;;13.53;2.73;;;;;;;;;;10439155;28;20248;-58
2023/01/05 08:31:48;;;;;;;11.43;3.37;;;;;;;;;;10439421;28;20266;-58
2023/01/05 08:36:48;;;;;;;10.00;2.27;;;;;;;;;;10440015;28;20270;-60
2023/01/05 08:41:48;;;;;;;7.93;2.33;;;;;;;;;;10438310;28;20430;-58
2023/01/05 08:46:49;;;;;;;11.40;3.10;;;;;;;;;;10447471;28;20215;-60
2023/01/05 08:51:49;;;;;;;7.40;2.70;;;;;;;;;;10447339;28;20741;-61
2023/01/05 08:56:49;;;;;;;9.43;2.83;;;;;;;;;;10446671;28;20187;-60
2023/01/05 09:01:50;;;;;;;11.27;2.40;;;;;;;;;;10446939;28;20222;-60
2023/01/05 09:06:50;;;;;;;9.53;2.60;;;;;;;;;;10447379;28;20372;-58
2023/01/05 09:11:50;;;;;;;9.10;2.63;;;;;;;;;;10443601;28;20216;-60
2023/01/05 09:16:51;;;;;;;13.43;2.63;;;;;;;;;;10445995;28;20602;-60
2023/01/05 09:21:52;;;;;;;9.97;1.80;;;;;;;;;;10446234;28;20739;-59
2023/01/05 09:26:52;;;;;;;5.40;1.80;;;;;;;;;;10427972;28;20303;-61
2023/01/05 09:31:52;;;;;;;8.30;2.37;;;;;;;;;;10444440;28;20685;-59
2023/01/05 09:36:52;;;;;;;7.00;2.33;;;;;;;;;;10445846;28;20222;-61
2023/01/05 09:41:54;;;;;;;8.00;2.57;;;;;;;;;;10444701;28;20242;-61
2023/01/05 09:46:56;;;;;;;10.83;2.67;;;;;;;;;;10443934;28;20254;-60
2023/01/05 09:52:00;;;;;;;11.07;4.97;;;;;;;;;;10437757;28;20181;-61
2023/01/05 09:57:02;;;;;;;19.53;6.93;;;;;;;;;;10423333;28;20192;-59
2023/01/05 10:02:05;;;;;;;7.50;2.03;;;;;;;;;;10422692;28;20601;-61
2023/01/05 10:07:06;;;;;;;6.93;1.60;;;;;;;;;;10442227;28;20299;-62
2023/01/05 10:17:26;;;;;;;9.47;2.17;;;;;;;;;;10441747;28;20184;-61
2023/01/05 10:22:34;;;;;;;9.30;2.20;;;;;;;;;;10443084;28;20259;-61
2023/01/05 10:27:58;;;;;;;12.87;2.40;;;;;;;;;;10445630;28;21072;-60
2023/01/05 10:33:00;;;;;;;6.60;1.97;;;;;;;;;;10442696;28;20255;-61
2023/01/05 10:38:06;;;;;;;6.37;2.60;;;;;;;;;;10443933;28;20207;-61
2023/01/05 10:43:25;;;;;;;11.90;2.90;;;;;;;;;;10443571;28;20212;-60
2023/01/05 10:48:30;;;;;;;9.20;2.73;;;;;;;;;;10441466;28;20281;-59
2023/01/05 10:53:32;;;;;;;8.50;2.93;;;;;;;;;;10444694;28;20227;-60
2023/01/05 10:58:34;;;;;;;8.57;2.73;;;;;;;;;;10445668;28;20192;-61
2023/01/05 11:03:37;;;;;;;12.50;2.90;;;;;;;;;;10443193;28;20273;-60
2023/01/05 11:08:37;;;;;;;10.07;2.63;;;;;;;;;;10434863;28;20220;-60
2023/01/05 11:13:45;;;;;;;9.30;2.67;;;;;;;;;;10440922;28;20218;-59
2023/01/05 11:18:52;;;;;;;13.83;3.20;;;;;;;;;;10441387;28;20208;-59
2023/01/05 11:23:54;;;;;;;7.10;2.40;;;;;;;;;;10440987;28;20289;-58
2023/01/05 11:29:09;;;;;;;7.67;2.13;;;;;;;;;;10441510;28;20277;-61
2023/01/05 11:34:22;;;;;;;8.97;2.27;;;;;;;;;;10424067;28;20210;-61
2023/01/05 11:39:25;;;;;;;10.43;2.53;;;;;;;;;;10432487;28;20177;-59
2023/01/05 11:44:26;;;;;;;5.27;1.73;;;;;;;;;;10435733;28;20207;-61
2023/01/05 11:49:26;;;;;;;7.33;2.00;;;;;;;;;;10455465;28;20653;-59
2023/01/05 11:54:34;;;;;;;7.57;2.20;;;;;;;;;;10442733;28;20697;-60
2023/01/05 11:59:36;;;;;;;11.77;2.60;;;;;;;;;;10439539;28;20191;-61
2023/01/05 12:04:48;;;;;;;6.50;2.00;;;;;;;;;;10439899;28;20358;-63
2023/01/05 12:09:53;;;;;;;11.43;2.27;;;;;;;;;;10439372;28;20723;-59
2023/01/05 12:15:12;;;;;;;6.80;1.83;;;;;;;;;;10457649;28;20591;-62
2023/01/05 12:20:30;;;;;;;4.73;1.77;;;;;;;;;;10437919;28;20225;-61
2023/01/05 12:25:40;;;;;;;7.03;1.77;;;;;;;;;;10438310;28;20247;-60
2023/01/05 12:30:52;;;;;;;7.40;1.50;;;;;;;;;;10437063;28;20188;-61
2023/01/05 12:36:01;;;;;;;4.90;1.50;;;;;;;;;;10438755;28;20211;-62
2023/01/05 12:41:08;;;;;;;6.17;1.60;;;;;;;;;;10439694;28;20188;-60
2023/01/05 12:46:12;;;;;;;6.10;1.53;;;;;;;;;;10438454;28;20231;-60
2023/01/05 12:51:17;;;;;;;17.03;2.17;;;;;;;;;;10439477;28;20196;-62
2023/01/05 12:56:21;;;;;;;6.20;1.93;;;;;;;;;;10436156;28;20215;-62
2023/01/05 13:01:23;;;;;;;6.60;1.40;;;;;;;;;;10437750;28;20697;-62
2023/01/05 13:06:25;;;;;;;9.47;2.40;;;;;;;;;;10437001;28;20224;-62
2023/01/05 13:11:30;;;;;;;5.90;1.70;;;;;;;;;;10419494;28;20733;-62
2023/01/05 13:16:36;;;;;;;5.13;2.00;;;;;;;;;;10437809;28;20692;-61
2023/01/05 13:21:38;;;;;;;5.90;1.73;;;;;;;;;;10437699;28;21010;-60
2023/01/05 13:26:39;;;;;;;8.00;1.97;;;;;;;;;;10435558;28;20816;-61
2023/01/05 13:31:51;;;;;;;5.10;1.60;;;;;;;;;;10443170;28;20263;-61
2023/01/05 13:37:10;;;;;;;9.37;2.20;;;;;;;;;;10444593;28;20192;-61
2023/01/05 13:42:21;;;;;;;3.43;1.60;;;;;;;;;;10443479;28;20215;-61
2023/01/05 13:47:30;;;;;;;8.07;1.50;;;;;;;;;;10445667;28;20219;-62
2023/01/05 13:52:48;;;;;;;7.07;1.70;;;;;;;;;;10443001;28;20254;-61
2023/01/05 13:57:49;;;;;;;6.00;1.37;;;;;;;;;;10443189;28;20320;-61
2023/01/05 14:03:01;;;;;;;6.37;2.40;;;;;;;;;;10442573;28;20219;-61
2023/01/05 14:08:02;;;;;;;6.03;1.80;;;;;;;;;;10442854;28;20212;-62
2023/01/05 14:13:05;;;;;;;3.67;1.50;;;;;;;;;;10442592;28;20208;-61
2023/01/05 14:18:28;;;;;;;8.20;2.00;;;;;;;;;;10442775;28;20663;-64
2023/01/05 14:23:29;;;;;;;5.73;1.90;;;;;;;;;;10441716;28;20239;-61
2023/01/05 14:28:29;;;;;;;9.03;2.40;;;;;;;;;;10441868;28;20232;-61
2023/01/05 14:33:29;;;;;;;5.60;2.17;;;;;;;;;;10440740;28;20216;-61
2023/01/05 14:38:30;;;;;;;8.43;2.37;;;;;;;;;;10442470;28;20191;-61
2023/01/05 14:43:32;;;;;;;4.13;2.10;;;;;;;;;;10440338;28;20211;-62
2023/01/05 14:48:34;;;;;;;9.07;1.87;;;;;;;;;;10440934;28;20219;-62
2023/01/05 14:53:38;;;;;;;7.63;1.90;;;;;;;;;;10440104;28;20211;-61
2023/01/05 14:58:41;;;;;;;8.77;2.80;;;;;;;;;;10440453;28;20991;-59
2023/01/05 15:03:41;;;;;;;7.00;2.57;;;;;;;;;;10437775;28;20676;-61
2023/01/05 15:09:01;;;;;;;9.10;2.80;;;;;;;;;;10440451;28;20251;-59
2023/01/05 15:14:33;;;;;;;5.60;2.40;;;;;;;;;;10437144;28;20755;-60
2023/01/05 15:19:42;;;;;;;8.70;2.33;;;;;;;;;;10439923;28;20189;-62
2023/01/05 15:24:58;;;;;;;7.10;2.67;;;;;;;;;;10439236;28;20251;-61
2023/01/05 15:30:09;;;;;;;10.50;3.03;;;;;;;;;;10438843;28;20187;-59
2023/01/05 15:35:13;;;;;;;8.20;3.33;;;;;;;;;;10423117;28;20231;-62
2023/01/05 15:40:13;;;;;;;4.43;2.37;;;;;;;;;;10441514;28;20196;-61
2023/01/05 15:45:16;;;;;;;6.20;3.07;;;;;;;;;;10439023;28;20223;-63
2023/01/05 15:50:19;;;;;;;9.87;3.10;;;;;;;;;;10428017;28;20253;-63
2023/01/05 15:55:20;;;;;;;5.53;2.30;;;;;;;;;;10439233;28;20216;-62
2023/01/05 16:00:22;;;;;;;5.13;2.80;;;;;;;;;;10436618;28;20224;-62
2023/01/05 16:05:24;;;;;;;4.30;2.57;;;;;;;;;;10438327;28;20215;-62
2023/01/05 16:10:30;;;;;;;7.93;2.20;;;;;;;;;;10436318;28;20180;-62
2023/01/05 16:15:31;;;;;;;9.37;3.00;;;;;;;;;;10438644;28;20212;-62
2023/01/05 16:20:32;;;;;;;6.03;2.70;;;;;;;;;;10438481;28;20830;-60
2023/01/05 16:25:37;;;;;;;7.03;3.20;;;;;;;;;;10438638;28;20240;-61
2023/01/05 16:30:38;;;;;;;7.97;4.07;;;;;;;;;;10438816;28;20647;-61
2023/01/05 16:35:42;;;;;;;7.40;2.77;;;;;;;;;;10437945;28;20216;-60
2023/01/05 16:40:46;;;;;;;8.57;2.83;;;;;;;;;;10437309;28;20188;-60
2023/01/05 16:45:48;;;;;;;3.97;2.60;;;;;;;;;;10437767;28;20220;-62
2023/01/05 16:50:53;;;;;;;8.40;2.93;;;;;;;;;;10430069;28;20606;-61
2023/01/05 16:55:54;;;;;;;7.27;3.23;;;;;;;;;;10437452;28;20588;-62
2023/01/05 17:01:12;;;;;;;5.33;2.87;;;;;;;;;;10461811;28;20206;-61
2023/01/05 17:06:19;;;;;;;6.77;2.70;;;;;;;;;;10491762;28;20585;-62
2023/01/05 17:11:20;;;;;;;8.60;4.50;;;;;;;;;;10460944;28;20220;-61
2023/01/05 17:16:20;;;;;;;7.03;3.10;;;;;;;;;;10455325;28;20302;-62
2023/01/05 17:21:21;;;;;;;6.63;2.90;;;;;;;;;;10457174;28;20426;-62
2023/01/05 17:26:30;;;;;;;6.57;3.40;;;;;;;;;;10448940;28;20613;-61
2023/01/05 17:31:31;;;;;;;5.50;3.20;;;;;;;;;;10455783;28;20273;-60
2023/01/05 17:36:32;;;;;;;4.77;3.30;;;;;;;;;;10459869;28;20211;-61
2023/01/05 17:41:33;;;;;;;5.10;3.00;;;;;;;;;;10452346;28;20188;-61
2023/01/05 17:46:35;;;;;;;5.03;4.23;;;;;;;;;;10450153;28;20341;-60
2023/01/05 17:51:35;;;;;;;6.93;5.23;;;;;;;;;;10452612;28;20180;-62
2023/01/05 17:56:35;;;;;;;6.10;5.07;;;;;;;;;;10451232;28;20577;-60
2023/01/05 18:01:36;;;;;;;7.57;6.07;;;;;;;;;;10451207;28;20257;-63
2023/01/05 18:06:36;;;;;;;7.63;6.73;;;;;;;;;;10450496;28;20271;-59
2023/01/05 18:11:36;;;;;;;11.03;7.80;;;;;;;;;;10453060;28;20184;-60
2023/01/05 18:16:37;;;;;;;11.17;7.37;;;;;;;;;;10450354;28;20208;-61
2023/01/05 18:21:37;;;;;;;6.60;5.33;;;;;;;;;;10452153;28;20196;-61
2023/01/05 18:26:37;;;;;;;6.23;4.10;;;;;;;;;;10452023;28;20232;-61
2023/01/05 18:31:37;;;;;;;4.83;4.33;;;;;;;;;;10452240;28;20188;-61
2023/01/05 18:36:37;;;;;;;5.03;3.07;;;;;;;;;;10450173;28;20227;-62
2023/01/05 18:41:38;;;;;;;6.33;4.17;;;;;;;;;;10457004;28;20198;-62
2023/01/05 18:46:38;;;;;;;5.63;4.30;;;;;;;;;;10466664;28;20932;-58
2023/01/05 18:51:38;;;;;;;6.07;3.83;;;;;;;;;;10457693;28;20196;-59
2023/01/05 18:56:39;;;;;;;7.77;5.17;;;;;;;;;;10455073;28;20211;-61
2023/01/05 19:01:41;;;;;;;9.77;8.40;;;;;;;;;;10447640;28;20195;-61
2023/01/05 19:06:41;;;;;;;14.87;8.50;;;;;;;;;;10449051;28;20289;-60
2023/01/05 19:11:43;;;;;;;5.57;4.63;;;;;;;;;;10449322;28;20216;-61
2023/01/05 19:16:43;;;;;;;5.03;3.77;;;;;;;;;;10448959;28;20207;-62
2023/01/05 19:21:46;;;;;;;7.77;3.23;;;;;;;;;;10457488;28;20241;-62
2023/01/05 19:26:47;;;;;;;5.67;4.23;;;;;;;;;;10451051;28;20223;-63
2023/01/05 19:31:48;;;;;;;6.03;4.90;;;;;;;;;;10450382;28;20176;-60
2023/01/05 19:36:48;;;;;;;7.33;5.67;;;;;;;;;;10462919;28;20199;-61
2023/01/05 19:41:52;;;;;;;8.00;6.40;;;;;;;;;;10462790;28;20192;-62
2023/01/05 19:46:52;;;;;;;6.80;6.10;;;;;;;;;;10447279;28;20697;-62
2023/01/05 19:51:53;;;;;;;9.00;6.97;;;;;;;;;;10447975;28;20188;-58
2023/01/05 19:56:53;;;;;;;7.00;5.90;;;;;;;;;;10446157;28;20184;-61
2023/01/05 20:01:54;;;;;;;7.90;5.60;;;;;;;;;;10447617;28;20212;-57
2023/01/05 20:06:55;;;;;;;9.03;5.43;;;;;;;;;;10446542;28;20574;-60
2023/01/05 20:11:55;;;;;;;15.47;6.43;;;;;;;;;;10446591;28;20731;-61
2023/01/05 20:16:56;;;;;;;7.30;6.17;;;;;;;;;;10446396;28;20198;-62
2023/01/05 20:21:58;;;;;;;8.63;5.90;;;;;;;;;;10446931;28;20263;-62
2023/01/05 20:27:00;;;;;;;6.30;5.10;;;;;;;;;;10445805;28;20641;-62
2023/01/05 20:32:08;;;;;;;9.87;4.80;;;;;;;;;;10446841;28;20202;-62
2023/01/05 20:37:09;;;;;;;7.67;4.90;;;;;;;;;;10446627;28;20195;-62
2023/01/05 20:42:09;;;;;;;6.70;4.00;;;;;;;;;;10453768;28;20219;-60
2023/01/05 20:47:10;;;;;;;7.57;3.70;;;;;;;;;;10454678;28;20211;-61
2023/01/05 20:52:11;;;;;;;7.57;3.23;;;;;;;;;;10454034;28;20215;-62
2023/01/05 20:57:11;;;;;;;8.53;3.83;;;;;;;;;;10453641;28;20187;-62
2023/01/05 21:02:12;;;;;;;6.20;4.57;;;;;;;;;;10454509;28;20578;-61
2023/01/05 21:07:12;;;;;;;8.35;3.72;;;;;;;;;;10454759;28;20230;-61
2023/01/05 21:12:12;;;;;;;9.67;3.10;;;;;;;;;;10453377;28;20204;-62
2023/01/05 21:17:12;;;;;;;7.57;3.50;;;;;;;;;;10454414;28;20666;-61
2023/01/05 21:22:12;;;;;;;10.87;3.70;;;;;;;;;;10452563;28;20228;-62
2023/01/05 21:27:13;;;;;;;5.83;4.30;;;;;;;;;;10431758;28;20231;-61
2023/01/05 21:32:13;;;;;;;5.80;3.30;;;;;;;;;;10460019;28;20283;-61
2023/01/05 21:37:13;;;;;;;10.93;4.47;;;;;;;;;;10453096;28;20768;-61
2023/01/05 21:47:34;;;;;;;12.80;6.13;;;;;;;;;;10452701;28;20298;-62
2023/01/05 21:57:54;;;;;;;9.37;5.90;;;;;;;;;;10451619;28;20191;-66
2023/01/05 22:02:54;;;;;;;10.13;6.30;;;;;;;;;;10451672;28;20761;-60
2023/01/05 22:07:55;;;;;;;8.50;5.37;;;;;;;;;;10451065;28;20231;-57
2023/01/05 22:12:55;;;;;;;8.10;5.63;;;;;;;;;;10451185;28;21287;-61
2023/01/05 22:17:55;;;;;;;12.37;6.33;;;;;;;;;;10451834;28;20366;-62
2023/01/05 22:22:55;;;;;;;9.13;5.77;;;;;;;;;;10451095;28;20228;-61
2023/01/05 22:27:55;;;;;;;12.60;6.73;;;;;;;;;;10452432;28;20219;-61
2023/01/05 22:32:57;;;;;;;13.97;8.00;;;;;;;;;;10451842;28;20675;-61
2023/01/05 22:37:57;;;;;;;11.83;7.40;;;;;;;;;;10451983;28;20192;-58
2023/01/05 22:42:57;;;;;;;10.63;6.93;;;;;;;;;;10451316;28;20215;-58
2023/01/05 22:47:57;;;;;;;11.23;7.33;;;;;;;;;;10452194;28;20239;-59
2023/01/05 22:52:57;;;;;;;11.17;8.10;;;;;;;;;;10450861;28;20440;-58
2023/01/05 22:57:57;;;;;;;15.77;8.97;;;;;;;;;;10451304;28;20213;-61
2023/01/05 23:02:59;;;;;;;18.97;10.77;;;;;;;;;;10451581;28;20282;-62
2023/01/05 23:07:59;;;;;;;15.43;10.17;;;;;;;;;;10451246;28;20220;-61
2023/01/05 23:12:59;;;;;;;16.10;9.63;;;;;;;;;;10450927;28;20215;-60
2023/01/05 23:17:59;;;;;;;14.43;9.73;;;;;;;;;;10450913;28;20191;-61
2023/01/05 23:22:59;;;;;;;20.43;11.13;;;;;;;;;;10449495;28;20310;-62
2023/01/05 23:27:59;;;;;;;12.47;9.93;;;;;;;;;;10450808;28;20220;-61
2023/01/05 23:33:00;;;;;;;16.83;9.80;;;;;;;;;;10449938;28;20697;-61
2023/01/05 23:38:00;;;;;;;20.60;11.17;;;;;;;;;;10450387;28;20622;-61
2023/01/05 23:43:00;;;;;;;15.03;9.47;;;;;;;;;;10449435;28;20212;-62
2023/01/05 23:48:00;;;;;;;17.23;10.20;;;;;;;;;;10449262;28;20215;-63
2023/01/05 23:53:01;;;;;;;18.20;11.30;;;;;;;;;;10448917;28;20200;-62
2023/01/05 23:58:02;;;;;;;24.77;12.53;;;;;;;;;;10449055;28;20294;-63
